KGON 071056Z 01006KT 10SM CLR 10/00 A2992 RMK AO2 SLP132 T01000000

KGON 070956Z AUTO 01009KT 10SM CLR 08/00 A2992 RMK AO2 SLP131 T00830000

KGON 070856Z AUTO 02007KT 10SM CLR 09/00 A2992 RMK AO2 SLP131 T00940000 53003

KGON 070756Z AUTO 35007KT 10SM FEW080 09/01 A2991 RMK AO2 SLP130 T00940006

KGON 070656Z AUTO 01008KT 10SM OVC080 10/01 A2991 RMK AO2 SLP128 T01000011

KGON 070556Z AUTO 01007KT 10SM SCT080 11/01 A2991 RMK AO2 SLP128 T01060011 10156 20106 58006

KGON 070456Z AUTO 35007KT 10SM CLR 11/01 A2992 RMK AO2 SLP132 T01110006 401890089

KGON 070356Z AUTO 35003KT 10SM CLR 11/01 A2993 RMK AO2 SLP134 T01060011